sensor_id;sensor_type;location;lat;lon;timestamp;P1;durP1;ratioP1;P2;durP2;ratioP2
5616;SDS011;2830;50.656;7.568;2024-03-08T00:00:09;25.25;;;15.23;;
5616;SDS011;2830;50.656;7.568;2024-03-08T00:02:41;24.05;;;13.45;;
5616;SDS011;2830;50.656;7.568;2024-03-08T00:05:09;19.77;;;13.30;;
5616;SDS011;2830;50.656;7.568;2024-03-08T00:07:36;19.17;;;13.23;;
5616;SDS011;2830;50.656;7.568;2024-03-08T00:10:07;25.20;;;15.63;;
5616;SDS011;2830;50.656;7.568;2024-03-08T00:12:42;21.55;;;13.20;;
5616;SDS011;2830;50.656;7.568;2024-03-08T00:15:11;22.17;;;14.70;;
5616;SDS011;2830;50.656;7.568;2024-03-08T00:17:42;21.42;;;14.20;;
5616;SDS011;2830;50.656;7.568;2024-03-08T00:20:09;20.58;;;13.02;;
5616;SDS011;2830;50.656;7.568;2024-03-08T00:22:37;20.88;;;13.30;;
5616;SDS011;2830;50.656;7.568;2024-03-08T00:25:05;18.52;;;13.27;;
5616;SDS011;2830;50.656;7.568;2024-03-08T00:27:35;22.10;;;14.00;;
5616;SDS011;2830;50.656;7.568;2024-03-08T00:30:02;22.90;;;15.13;;
5616;SDS011;2830;50.656;7.568;2024-03-08T00:32:30;21.92;;;13.07;;
5616;SDS011;2830;50.656;7.568;2024-03-08T00:34:58;16.55;;;11.73;;
5616;SDS011;2830;50.656;7.568;2024-03-08T00:37:25;25.92;;;14.45;;
5616;SDS011;2830;50.656;7.568;2024-03-08T00:39:52;18.20;;;12.35;;
5616;SDS011;2830;50.656;7.568;2024-03-08T00:42:20;25.00;;;14.25;;
5616;SDS011;2830;50.656;7.568;2024-03-08T00:44:47;19.80;;;12.73;;
5616;SDS011;2830;50.656;7.568;2024-03-08T00:47:17;20.77;;;13.00;;
5616;SDS011;2830;50.656;7.568;2024-03-08T00:49:45;20.73;;;13.60;;
5616;SDS011;2830;50.656;7.568;2024-03-08T00:52:13;18.17;;;13.27;;
5616;SDS011;2830;50.656;7.568;2024-03-08T00:54:41;21.13;;;14.30;;
5616;SDS011;2830;50.656;7.568;2024-03-08T00:57:10;24.20;;;14.55;;
5616;SDS011;2830;50.656;7.568;2024-03-08T00:59:38;21.98;;;13.73;;
5616;SDS011;2830;50.656;7.568;2024-03-08T01:02:05;17.48;;;11.52;;
5616;SDS011;2830;50.656;7.568;2024-03-08T01:04:32;24.98;;;13.75;;
5616;SDS011;2830;50.656;7.568;2024-03-08T01:06:59;27.42;;;14.43;;
5616;SDS011;2830;50.656;7.568;2024-03-08T01:09:26;24.92;;;13.70;;
5616;SDS011;2830;50.656;7.568;2024-03-08T01:11:54;18.55;;;12.95;;
5616;SDS011;2830;50.656;7.568;2024-03-08T01:14:22;23.70;;;14.00;;
5616;SDS011;2830;50.656;7.568;2024-03-08T01:16:50;20.60;;;13.65;;
5616;SDS011;2830;50.656;7.568;2024-03-08T01:19:17;23.27;;;14.23;;
5616;SDS011;2830;50.656;7.568;2024-03-08T01:21:44;26.83;;;15.77;;
5616;SDS011;2830;50.656;7.568;2024-03-08T01:24:11;20.90;;;12.43;;
5616;SDS011;2830;50.656;7.568;2024-03-08T01:26:38;21.40;;;13.95;;
5616;SDS011;2830;50.656;7.568;2024-03-08T01:29:05;23.75;;;13.40;;
5616;SDS011;2830;50.656;7.568;2024-03-08T01:31:32;26.10;;;14.80;;
5616;SDS011;2830;50.656;7.568;2024-03-08T01:33:59;22.40;;;13.43;;
5616;SDS011;2830;50.656;7.568;2024-03-08T01:36:26;20.90;;;14.30;;
5616;SDS011;2830;50.656;7.568;2024-03-08T01:38:53;24.63;;;13.85;;
5616;SDS011;2830;50.656;7.568;2024-03-08T01:41:20;21.80;;;13.23;;
5616;SDS011;2830;50.656;7.568;2024-03-08T01:43:47;24.35;;;14.02;;
5616;SDS011;2830;50.656;7.568;2024-03-08T01:46:17;25.00;;;14.45;;
5616;SDS011;2830;50.656;7.568;2024-03-08T01:48:48;25.00;;;13.25;;
5616;SDS011;2830;50.656;7.568;2024-03-08T01:51:18;27.08;;;15.65;;
5616;SDS011;2830;50.656;7.568;2024-03-08T01:53:46;26.20;;;13.70;;
5616;SDS011;2830;50.656;7.568;2024-03-08T01:56:14;34.47;;;13.65;;
5616;SDS011;2830;50.656;7.568;2024-03-08T01:58:41;26.73;;;14.85;;
5616;SDS011;2830;50.656;7.568;2024-03-08T02:01:11;23.98;;;13.30;;
5616;SDS011;2830;50.656;7.568;2024-03-08T02:03:41;28.38;;;13.77;;
5616;SDS011;2830;50.656;7.568;2024-03-08T02:06:13;21.02;;;13.13;;
5616;SDS011;2830;50.656;7.568;2024-03-08T02:08:42;19.95;;;13.15;;
5616;SDS011;2830;50.656;7.568;2024-03-08T02:11:10;24.65;;;14.50;;
5616;SDS011;2830;50.656;7.568;2024-03-08T02:13:38;21.38;;;12.35;;
5616;SDS011;2830;50.656;7.568;2024-03-08T02:16:05;22.40;;;12.60;;
5616;SDS011;2830;50.656;7.568;2024-03-08T02:18:35;21.10;;;13.13;;
5616;SDS011;2830;50.656;7.568;2024-03-08T02:21:03;24.10;;;14.95;;
5616;SDS011;2830;50.656;7.568;2024-03-08T02:23:31;25.58;;;14.80;;
5616;SDS011;2830;50.656;7.568;2024-03-08T02:25:59;21.05;;;12.93;;
5616;SDS011;2830;50.656;7.568;2024-03-08T02:28:26;21.70;;;13.23;;
5616;SDS011;2830;50.656;7.568;2024-03-08T02:30:54;26.13;;;12.02;;
5616;SDS011;2830;50.656;7.568;2024-03-08T02:33:23;19.10;;;12.70;;
5616;SDS011;2830;50.656;7.568;2024-03-08T02:35:51;27.33;;;14.50;;
5616;SDS011;2830;50.656;7.568;2024-03-08T02:38:18;23.40;;;13.57;;
5616;SDS011;2830;50.656;7.568;2024-03-08T02:40:47;25.42;;;14.63;;
5616;SDS011;2830;50.656;7.568;2024-03-08T02:43:16;25.30;;;14.82;;
5616;SDS011;2830;50.656;7.568;2024-03-08T02:45:44;23.38;;;14.13;;
5616;SDS011;2830;50.656;7.568;2024-03-08T02:48:15;19.95;;;13.38;;
5616;SDS011;2830;50.656;7.568;2024-03-08T02:50:45;22.45;;;13.48;;
5616;SDS011;2830;50.656;7.568;2024-03-08T02:53:13;21.65;;;12.68;;
5616;SDS011;2830;50.656;7.568;2024-03-08T02:55:40;21.20;;;12.68;;
5616;SDS011;2830;50.656;7.568;2024-03-08T02:58:08;19.35;;;12.20;;
5616;SDS011;2830;50.656;7.568;2024-03-08T03:00:37;25.30;;;14.68;;
5616;SDS011;2830;50.656;7.568;2024-03-08T03:03:07;20.50;;;12.27;;
5616;SDS011;2830;50.656;7.568;2024-03-08T03:05:34;22.50;;;13.20;;
5616;SDS011;2830;50.656;7.568;2024-03-08T03:08:02;20.60;;;13.90;;
5616;SDS011;2830;50.656;7.568;2024-03-08T03:10:35;21.67;;;13.82;;
5616;SDS011;2830;50.656;7.568;2024-03-08T03:13:03;22.25;;;13.77;;
5616;SDS011;2830;50.656;7.568;2024-03-08T03:15:31;19.75;;;12.23;;
5616;SDS011;2830;50.656;7.568;2024-03-08T03:18:00;20.80;;;13.23;;
5616;SDS011;2830;50.656;7.568;2024-03-08T03:20:28;21.27;;;14.13;;
5616;SDS011;2830;50.656;7.568;2024-03-08T03:23:07;25.20;;;12.85;;
5616;SDS011;2830;50.656;7.568;2024-03-08T03:25:35;20.92;;;13.32;;
5616;SDS011;2830;50.656;7.568;2024-03-08T03:28:02;22.25;;;13.32;;
5616;SDS011;2830;50.656;7.568;2024-03-08T03:30:31;18.67;;;11.93;;
5616;SDS011;2830;50.656;7.568;2024-03-08T03:33:00;21.17;;;12.00;;
5616;SDS011;2830;50.656;7.568;2024-03-08T03:35:28;25.02;;;12.88;;
5616;SDS011;2830;50.656;7.568;2024-03-08T03:37:58;21.42;;;12.40;;
5616;SDS011;2830;50.656;7.568;2024-03-08T03:40:37;20.58;;;12.75;;
5616;SDS011;2830;50.656;7.568;2024-03-08T03:43:05;21.23;;;13.90;;
5616;SDS011;2830;50.656;7.568;2024-03-08T03:45:32;25.30;;;14.40;;
5616;SDS011;2830;50.656;7.568;2024-03-08T03:48:04;20.83;;;13.23;;
5616;SDS011;2830;50.656;7.568;2024-03-08T03:50:33;23.83;;;14.50;;
5616;SDS011;2830;50.656;7.568;2024-03-08T03:53:03;22.48;;;13.63;;
5616;SDS011;2830;50.656;7.568;2024-03-08T03:55:30;27.58;;;13.40;;
5616;SDS011;2830;50.656;7.568;2024-03-08T03:57:57;23.45;;;14.02;;
5616;SDS011;2830;50.656;7.568;2024-03-08T04:00:25;22.27;;;14.52;;
5616;SDS011;2830;50.656;7.568;2024-03-08T04:02:53;20.95;;;13.15;;
5616;SDS011;2830;50.656;7.568;2024-03-08T04:05:22;23.35;;;12.02;;
5616;SDS011;2830;50.656;7.568;2024-03-08T04:07:49;25.17;;;13.65;;
5616;SDS011;2830;50.656;7.568;2024-03-08T04:10:16;22.98;;;12.18;;
5616;SDS011;2830;50.656;7.568;2024-03-08T04:12:43;23.25;;;12.73;;
5616;SDS011;2830;50.656;7.568;2024-03-08T04:15:11;20.35;;;13.45;;
5616;SDS011;2830;50.656;7.568;2024-03-08T04:17:38;19.85;;;12.70;;
5616;SDS011;2830;50.656;7.568;2024-03-08T04:20:05;24.55;;;13.57;;
5616;SDS011;2830;50.656;7.568;2024-03-08T04:22:37;22.58;;;12.35;;
5616;SDS011;2830;50.656;7.568;2024-03-08T04:25:06;18.90;;;12.98;;
5616;SDS011;2830;50.656;7.568;2024-03-08T04:27:33;21.42;;;14.15;;
5616;SDS011;2830;50.656;7.568;2024-03-08T04:30:01;22.55;;;13.13;;
5616;SDS011;2830;50.656;7.568;2024-03-08T04:32:29;22.75;;;13.45;;
5616;SDS011;2830;50.656;7.568;2024-03-08T04:34:56;25.42;;;13.45;;
5616;SDS011;2830;50.656;7.568;2024-03-08T04:37:23;22.20;;;12.90;;
5616;SDS011;2830;50.656;7.568;2024-03-08T04:39:51;21.40;;;13.10;;
5616;SDS011;2830;50.656;7.568;2024-03-08T04:42:18;19.08;;;12.02;;
5616;SDS011;2830;50.656;7.568;2024-03-08T04:44:45;27.23;;;13.18;;
5616;SDS011;2830;50.656;7.568;2024-03-08T04:47:12;24.58;;;12.98;;
5616;SDS011;2830;50.656;7.568;2024-03-08T04:49:39;19.65;;;13.02;;
5616;SDS011;2830;50.656;7.568;2024-03-08T04:52:06;22.65;;;13.52;;
5616;SDS011;2830;50.656;7.568;2024-03-08T04:54:33;22.92;;;13.70;;
5616;SDS011;2830;50.656;7.568;2024-03-08T04:57:00;23.15;;;11.60;;
5616;SDS011;2830;50.656;7.568;2024-03-08T04:59:32;21.15;;;13.63;;
5616;SDS011;2830;50.656;7.568;2024-03-08T05:01:59;20.25;;;12.93;;
5616;SDS011;2830;50.656;7.568;2024-03-08T05:04:26;23.02;;;12.80;;
5616;SDS011;2830;50.656;7.568;2024-03-08T05:06:52;22.90;;;14.70;;
5616;SDS011;2830;50.656;7.568;2024-03-08T05:09:20;26.92;;;14.95;;
5616;SDS011;2830;50.656;7.568;2024-03-08T05:11:47;25.08;;;15.50;;
5616;SDS011;2830;50.656;7.568;2024-03-08T05:14:14;28.67;;;15.38;;
5616;SDS011;2830;50.656;7.568;2024-03-08T05:16:46;22.02;;;14.40;;
5616;SDS011;2830;50.656;7.568;2024-03-08T05:19:17;29.50;;;17.50;;
5616;SDS011;2830;50.656;7.568;2024-03-08T05:21:45;26.98;;;15.30;;
5616;SDS011;2830;50.656;7.568;2024-03-08T05:24:16;23.65;;;14.55;;
5616;SDS011;2830;50.656;7.568;2024-03-08T05:26:44;24.63;;;14.45;;
5616;SDS011;2830;50.656;7.568;2024-03-08T05:29:12;23.83;;;15.38;;
5616;SDS011;2830;50.656;7.568;2024-03-08T05:31:51;24.92;;;16.10;;
5616;SDS011;2830;50.656;7.568;2024-03-08T05:34:21;27.13;;;15.07;;
5616;SDS011;2830;50.656;7.568;2024-03-08T05:36:49;28.10;;;16.88;;
5616;SDS011;2830;50.656;7.568;2024-03-08T05:39:17;32.20;;;15.65;;
5616;SDS011;2830;50.656;7.568;2024-03-08T05:41:46;30.35;;;17.20;;
5616;SDS011;2830;50.656;7.568;2024-03-08T05:44:13;33.53;;;17.52;;
5616;SDS011;2830;50.656;7.568;2024-03-08T05:46:40;29.75;;;16.67;;
5616;SDS011;2830;50.656;7.568;2024-03-08T05:49:07;25.55;;;15.27;;
5616;SDS011;2830;50.656;7.568;2024-03-08T05:51:37;25.75;;;15.52;;
5616;SDS011;2830;50.656;7.568;2024-03-08T05:54:06;31.48;;;15.63;;
5616;SDS011;2830;50.656;7.568;2024-03-08T05:56:41;27.15;;;15.77;;
5616;SDS011;2830;50.656;7.568;2024-03-08T05:59:10;26.48;;;15.10;;
5616;SDS011;2830;50.656;7.568;2024-03-08T06:01:37;25.85;;;14.43;;
5616;SDS011;2830;50.656;7.568;2024-03-08T06:04:08;25.02;;;14.90;;
5616;SDS011;2830;50.656;7.568;2024-03-08T06:06:35;28.80;;;16.17;;
5616;SDS011;2830;50.656;7.568;2024-03-08T06:09:04;24.20;;;14.27;;
5616;SDS011;2830;50.656;7.568;2024-03-08T06:11:38;24.40;;;15.05;;
5616;SDS011;2830;50.656;7.568;2024-03-08T06:14:05;27.20;;;16.63;;
5616;SDS011;2830;50.656;7.568;2024-03-08T06:16:33;25.40;;;15.95;;
5616;SDS011;2830;50.656;7.568;2024-03-08T06:19:00;31.60;;;16.55;;
5616;SDS011;2830;50.656;7.568;2024-03-08T06:21:28;28.58;;;16.75;;
5616;SDS011;2830;50.656;7.568;2024-03-08T06:23:55;22.25;;;14.88;;
5616;SDS011;2830;50.656;7.568;2024-03-08T06:26:24;24.98;;;14.70;;
5616;SDS011;2830;50.656;7.568;2024-03-08T06:28:55;24.98;;;14.85;;
5616;SDS011;2830;50.656;7.568;2024-03-08T06:31:23;23.42;;;14.40;;
5616;SDS011;2830;50.656;7.568;2024-03-08T06:33:50;21.58;;;14.93;;
5616;SDS011;2830;50.656;7.568;2024-03-08T06:36:17;23.98;;;13.70;;
5616;SDS011;2830;50.656;7.568;2024-03-08T06:38:51;24.67;;;15.18;;
5616;SDS011;2830;50.656;7.568;2024-03-08T06:41:18;27.75;;;14.57;;
5616;SDS011;2830;50.656;7.568;2024-03-08T06:43:45;25.58;;;15.88;;
5616;SDS011;2830;50.656;7.568;2024-03-08T06:46:14;25.13;;;13.40;;
5616;SDS011;2830;50.656;7.568;2024-03-08T06:48:41;29.35;;;18.15;;
5616;SDS011;2830;50.656;7.568;2024-03-08T06:51:09;26.20;;;14.90;;
5616;SDS011;2830;50.656;7.568;2024-03-08T06:53:37;27.80;;;15.63;;
5616;SDS011;2830;50.656;7.568;2024-03-08T06:56:07;22.88;;;14.88;;
5616;SDS011;2830;50.656;7.568;2024-03-08T06:58:34;26.55;;;15.50;;
5616;SDS011;2830;50.656;7.568;2024-03-08T07:01:02;27.77;;;16.20;;
5616;SDS011;2830;50.656;7.568;2024-03-08T07:03:31;25.48;;;13.80;;
5616;SDS011;2830;50.656;7.568;2024-03-08T07:05:59;26.15;;;16.10;;
5616;SDS011;2830;50.656;7.568;2024-03-08T07:08:29;24.15;;;14.40;;
5616;SDS011;2830;50.656;7.568;2024-03-08T07:10:56;25.27;;;14.38;;
5616;SDS011;2830;50.656;7.568;2024-03-08T07:13:25;29.02;;;15.75;;
5616;SDS011;2830;50.656;7.568;2024-03-08T07:15:53;24.63;;;15.88;;
5616;SDS011;2830;50.656;7.568;2024-03-08T07:18:21;27.67;;;14.88;;
5616;SDS011;2830;50.656;7.568;2024-03-08T07:20:49;22.00;;;14.55;;
5616;SDS011;2830;50.656;7.568;2024-03-08T07:23:15;25.15;;;15.25;;
5616;SDS011;2830;50.656;7.568;2024-03-08T07:26:01;24.63;;;16.02;;
5616;SDS011;2830;50.656;7.568;2024-03-08T07:28:28;27.20;;;14.98;;
5616;SDS011;2830;50.656;7.568;2024-03-08T07:31:00;27.08;;;15.55;;
5616;SDS011;2830;50.656;7.568;2024-03-08T07:33:52;27.38;;;15.23;;
5616;SDS011;2830;50.656;7.568;2024-03-08T07:36:19;21.98;;;14.48;;
5616;SDS011;2830;50.656;7.568;2024-03-08T07:38:48;25.23;;;13.85;;
5616;SDS011;2830;50.656;7.568;2024-03-08T07:41:16;19.98;;;12.00;;
5616;SDS011;2830;50.656;7.568;2024-03-08T07:43:43;21.15;;;11.32;;
5616;SDS011;2830;50.656;7.568;2024-03-08T07:46:09;21.30;;;12.70;;
5616;SDS011;2830;50.656;7.568;2024-03-08T07:48:36;22.37;;;12.40;;
5616;SDS011;2830;50.656;7.568;2024-03-08T07:51:04;20.87;;;13.00;;
5616;SDS011;2830;50.656;7.568;2024-03-08T07:53:31;18.23;;;12.50;;
5616;SDS011;2830;50.656;7.568;2024-03-08T07:55:58;17.20;;;11.07;;
5616;SDS011;2830;50.656;7.568;2024-03-08T07:58:26;17.50;;;12.97;;
5616;SDS011;2830;50.656;7.568;2024-03-08T08:00:53;18.70;;;11.30;;
5616;SDS011;2830;50.656;7.568;2024-03-08T08:03:21;18.27;;;11.70;;
5616;SDS011;2830;50.656;7.568;2024-03-08T08:05:48;24.10;;;12.30;;
5616;SDS011;2830;50.656;7.568;2024-03-08T08:08:15;19.47;;;12.53;;
5616;SDS011;2830;50.656;7.568;2024-03-08T08:10:42;20.30;;;11.00;;
5616;SDS011;2830;50.656;7.568;2024-03-08T08:13:09;20.73;;;13.50;;
5616;SDS011;2830;50.656;7.568;2024-03-08T08:15:36;18.20;;;11.67;;
5616;SDS011;2830;50.656;7.568;2024-03-08T08:18:03;18.20;;;11.13;;
5616;SDS011;2830;50.656;7.568;2024-03-08T08:20:33;21.40;;;12.00;;
5616;SDS011;2830;50.656;7.568;2024-03-08T08:23:00;19.20;;;11.40;;
5616;SDS011;2830;50.656;7.568;2024-03-08T08:25:27;17.20;;;10.97;;
5616;SDS011;2830;50.656;7.568;2024-03-08T08:27:53;21.43;;;13.07;;
5616;SDS011;2830;50.656;7.568;2024-03-08T08:30:20;21.73;;;13.00;;
5616;SDS011;2830;50.656;7.568;2024-03-08T08:32:47;19.30;;;13.40;;
5616;SDS011;2830;50.656;7.568;2024-03-08T08:35:15;19.20;;;12.97;;
5616;SDS011;2830;50.656;7.568;2024-03-08T08:37:42;18.93;;;12.70;;
5616;SDS011;2830;50.656;7.568;2024-03-08T08:40:11;19.90;;;12.93;;
5616;SDS011;2830;50.656;7.568;2024-03-08T08:42:42;18.80;;;11.37;;
5616;SDS011;2830;50.656;7.568;2024-03-08T08:45:10;16.60;;;10.20;;
5616;SDS011;2830;50.656;7.568;2024-03-08T08:47:43;20.20;;;12.53;;
5616;SDS011;2830;50.656;7.568;2024-03-08T08:50:11;20.40;;;12.73;;
5616;SDS011;2830;50.656;7.568;2024-03-08T08:52:39;18.00;;;11.67;;
5616;SDS011;2830;50.656;7.568;2024-03-08T08:55:07;16.77;;;11.03;;
5616;SDS011;2830;50.656;7.568;2024-03-08T08:57:34;19.77;;;11.30;;
5616;SDS011;2830;50.656;7.568;2024-03-08T09:00:02;17.57;;;11.33;;
5616;SDS011;2830;50.656;7.568;2024-03-08T09:02:34;20.70;;;12.23;;
5616;SDS011;2830;50.656;7.568;2024-03-08T09:05:01;16.80;;;10.67;;
5616;SDS011;2830;50.656;7.568;2024-03-08T09:07:29;13.40;;;9.80;;
5616;SDS011;2830;50.656;7.568;2024-03-08T09:09:56;18.17;;;10.63;;
5616;SDS011;2830;50.656;7.568;2024-03-08T09:12:25;19.73;;;12.23;;
5616;SDS011;2830;50.656;7.568;2024-03-08T09:14:52;17.40;;;10.53;;
5616;SDS011;2830;50.656;7.568;2024-03-08T09:17:19;16.90;;;11.03;;
5616;SDS011;2830;50.656;7.568;2024-03-08T09:19:49;15.40;;;10.40;;
5616;SDS011;2830;50.656;7.568;2024-03-08T09:22:16;17.23;;;10.80;;
5616;SDS011;2830;50.656;7.568;2024-03-08T09:24:44;16.90;;;10.63;;
5616;SDS011;2830;50.656;7.568;2024-03-08T09:27:12;16.50;;;10.13;;
5616;SDS011;2830;50.656;7.568;2024-03-08T09:29:40;14.40;;;9.90;;
5616;SDS011;2830;50.656;7.568;2024-03-08T09:32:07;16.27;;;10.90;;
5616;SDS011;2830;50.656;7.568;2024-03-08T09:34:34;12.90;;;9.37;;
5616;SDS011;2830;50.656;7.568;2024-03-08T09:37:04;21.73;;;12.13;;
5616;SDS011;2830;50.656;7.568;2024-03-08T09:39:31;16.43;;;10.73;;
5616;SDS011;2830;50.656;7.568;2024-03-08T09:42:00;18.00;;;10.47;;
5616;SDS011;2830;50.656;7.568;2024-03-08T09:44:28;15.60;;;10.40;;
5616;SDS011;2830;50.656;7.568;2024-03-08T09:46:55;18.63;;;11.20;;
5616;SDS011;2830;50.656;7.568;2024-03-08T09:49:24;16.63;;;10.00;;
5616;SDS011;2830;50.656;7.568;2024-03-08T09:51:51;16.60;;;9.70;;
5616;SDS011;2830;50.656;7.568;2024-03-08T09:54:19;15.67;;;10.30;;
5616;SDS011;2830;50.656;7.568;2024-03-08T09:56:51;13.60;;;9.87;;
5616;SDS011;2830;50.656;7.568;2024-03-08T09:59:18;13.73;;;9.73;;
5616;SDS011;2830;50.656;7.568;2024-03-08T10:01:51;20.17;;;10.73;;
5616;SDS011;2830;50.656;7.568;2024-03-08T10:04:19;15.33;;;9.73;;
5616;SDS011;2830;50.656;7.568;2024-03-08T10:06:46;17.10;;;10.23;;
5616;SDS011;2830;50.656;7.568;2024-03-08T10:09:13;14.50;;;9.90;;
5616;SDS011;2830;50.656;7.568;2024-03-08T10:11:40;18.13;;;11.50;;
5616;SDS011;2830;50.656;7.568;2024-03-08T10:14:08;13.97;;;10.20;;
5616;SDS011;2830;50.656;7.568;2024-03-08T10:16:36;19.67;;;11.20;;
5616;SDS011;2830;50.656;7.568;2024-03-08T10:19:04;13.03;;;9.93;;
5616;SDS011;2830;50.656;7.568;2024-03-08T10:21:32;15.73;;;10.40;;
5616;SDS011;2830;50.656;7.568;2024-03-08T10:23:59;15.00;;;10.83;;
5616;SDS011;2830;50.656;7.568;2024-03-08T10:26:29;17.97;;;11.40;;
5616;SDS011;2830;50.656;7.568;2024-03-08T10:28:57;16.13;;;11.13;;
5616;SDS011;2830;50.656;7.568;2024-03-08T10:31:24;18.50;;;11.53;;
5616;SDS011;2830;50.656;7.568;2024-03-08T10:33:51;18.80;;;11.27;;
5616;SDS011;2830;50.656;7.568;2024-03-08T10:36:18;17.63;;;11.90;;
5616;SDS011;2830;50.656;7.568;2024-03-08T10:38:46;15.50;;;10.70;;
5616;SDS011;2830;50.656;7.568;2024-03-08T10:41:14;15.50;;;10.83;;
5616;SDS011;2830;50.656;7.568;2024-03-08T10:46:25;18.03;;;12.07;;
5616;SDS011;2830;50.656;7.568;2024-03-08T10:49:02;18.57;;;12.10;;
5616;SDS011;2830;50.656;7.568;2024-03-08T10:51:32;17.97;;;10.93;;
5616;SDS011;2830;50.656;7.568;2024-03-08T10:54:00;17.53;;;11.10;;
5616;SDS011;2830;50.656;7.568;2024-03-08T10:56:29;19.50;;;11.37;;
5616;SDS011;2830;50.656;7.568;2024-03-08T10:58:56;15.00;;;12.00;;
5616;SDS011;2830;50.656;7.568;2024-03-08T11:01:24;19.10;;;12.40;;
5616;SDS011;2830;50.656;7.568;2024-03-08T11:03:52;16.27;;;11.00;;
5616;SDS011;2830;50.656;7.568;2024-03-08T11:08:58;14.60;;;10.87;;
5616;SDS011;2830;50.656;7.568;2024-03-08T11:11:26;17.50;;;10.70;;
5616;SDS011;2830;50.656;7.568;2024-03-08T11:14:03;14.97;;;9.93;;
5616;SDS011;2830;50.656;7.568;2024-03-08T11:18:58;18.30;;;11.10;;
5616;SDS011;2830;50.656;7.568;2024-03-08T11:21:31;16.23;;;10.73;;
5616;SDS011;2830;50.656;7.568;2024-03-08T11:26:34;14.43;;;9.57;;
5616;SDS011;2830;50.656;7.568;2024-03-08T11:32:09;17.53;;;10.90;;
5616;SDS011;2830;50.656;7.568;2024-03-08T11:34:42;14.10;;;8.73;;
5616;SDS011;2830;50.656;7.568;2024-03-08T11:37:12;15.97;;;10.63;;
5616;SDS011;2830;50.656;7.568;2024-03-08T11:39:48;16.17;;;9.97;;
5616;SDS011;2830;50.656;7.568;2024-03-08T11:42:16;13.33;;;9.20;;
5616;SDS011;2830;50.656;7.568;2024-03-08T11:44:44;15.10;;;9.73;;
5616;SDS011;2830;50.656;7.568;2024-03-08T11:47:15;11.80;;;8.23;;
5616;SDS011;2830;50.656;7.568;2024-03-08T11:49:43;12.53;;;8.63;;
5616;SDS011;2830;50.656;7.568;2024-03-08T11:52:15;13.27;;;8.50;;
5616;SDS011;2830;50.656;7.568;2024-03-08T11:54:53;18.33;;;8.27;;
5616;SDS011;2830;50.656;7.568;2024-03-08T11:57:24;14.60;;;7.70;;
5616;SDS011;2830;50.656;7.568;2024-03-08T11:59:52;13.60;;;8.37;;
5616;SDS011;2830;50.656;7.568;2024-03-08T12:02:23;14.80;;;8.60;;
5616;SDS011;2830;50.656;7.568;2024-03-08T12:04:57;13.10;;;8.97;;
5616;SDS011;2830;50.656;7.568;2024-03-08T12:07:29;11.80;;;7.37;;
5616;SDS011;2830;50.656;7.568;2024-03-08T12:10:18;12.80;;;8.40;;
5616;SDS011;2830;50.656;7.568;2024-03-08T12:12:49;9.90;;;6.87;;
5616;SDS011;2830;50.656;7.568;2024-03-08T12:15:18;14.47;;;8.23;;
5616;SDS011;2830;50.656;7.568;2024-03-08T12:17:47;12.53;;;7.83;;
5616;SDS011;2830;50.656;7.568;2024-03-08T12:20:17;11.90;;;8.17;;
5616;SDS011;2830;50.656;7.568;2024-03-08T12:22:48;13.60;;;7.70;;
5616;SDS011;2830;50.656;7.568;2024-03-08T12:25:15;12.70;;;8.13;;
5616;SDS011;2830;50.656;7.568;2024-03-08T12:27:43;11.80;;;8.13;;
5616;SDS011;2830;50.656;7.568;2024-03-08T12:30:23;14.20;;;7.10;;
5616;SDS011;2830;50.656;7.568;2024-03-08T12:32:54;15.83;;;7.80;;
5616;SDS011;2830;50.656;7.568;2024-03-08T12:35:26;13.67;;;7.60;;
5616;SDS011;2830;50.656;7.568;2024-03-08T12:37:57;13.77;;;8.57;;
5616;SDS011;2830;50.656;7.568;2024-03-08T12:40:26;10.80;;;6.50;;
5616;SDS011;2830;50.656;7.568;2024-03-08T12:42:58;12.70;;;8.37;;
5616;SDS011;2830;50.656;7.568;2024-03-08T12:45:25;10.97;;;7.43;;
5616;SDS011;2830;50.656;7.568;2024-03-08T12:47:53;11.90;;;8.27;;
5616;SDS011;2830;50.656;7.568;2024-03-08T12:50:21;10.53;;;6.80;;
5616;SDS011;2830;50.656;7.568;2024-03-08T12:52:49;14.20;;;8.30;;
5616;SDS011;2830;50.656;7.568;2024-03-08T12:55:20;12.13;;;7.33;;
5616;SDS011;2830;50.656;7.568;2024-03-08T12:57:47;11.87;;;7.77;;
5616;SDS011;2830;50.656;7.568;2024-03-08T13:00:15;10.80;;;7.20;;
5616;SDS011;2830;50.656;7.568;2024-03-08T13:02:50;13.27;;;8.13;;
5616;SDS011;2830;50.656;7.568;2024-03-08T13:05:18;12.70;;;8.00;;
5616;SDS011;2830;50.656;7.568;2024-03-08T13:07:45;12.73;;;7.93;;
5616;SDS011;2830;50.656;7.568;2024-03-08T13:10:13;9.43;;;6.10;;
5616;SDS011;2830;50.656;7.568;2024-03-08T13:12:42;12.83;;;8.63;;
5616;SDS011;2830;50.656;7.568;2024-03-08T13:15:09;13.33;;;8.27;;
5616;SDS011;2830;50.656;7.568;2024-03-08T13:17:47;11.70;;;7.00;;
5616;SDS011;2830;50.656;7.568;2024-03-08T13:20:15;10.23;;;6.80;;
5616;SDS011;2830;50.656;7.568;2024-03-08T13:22:56;12.20;;;7.33;;
5616;SDS011;2830;50.656;7.568;2024-03-08T13:25:25;14.33;;;8.03;;
5616;SDS011;2830;50.656;7.568;2024-03-08T13:27:52;14.17;;;7.93;;
5616;SDS011;2830;50.656;7.568;2024-03-08T13:30:22;11.60;;;7.77;;
5616;SDS011;2830;50.656;7.568;2024-03-08T13:32:52;15.40;;;8.27;;
5616;SDS011;2830;50.656;7.568;2024-03-08T13:35:20;11.43;;;7.50;;
5616;SDS011;2830;50.656;7.568;2024-03-08T13:37:54;12.53;;;7.90;;
5616;SDS011;2830;50.656;7.568;2024-03-08T13:40:22;12.43;;;8.00;;
5616;SDS011;2830;50.656;7.568;2024-03-08T13:42:49;12.73;;;7.90;;
5616;SDS011;2830;50.656;7.568;2024-03-08T13:45:16;13.23;;;7.60;;
5616;SDS011;2830;50.656;7.568;2024-03-08T13:47:50;10.13;;;7.40;;
5616;SDS011;2830;50.656;7.568;2024-03-08T13:50:20;12.30;;;7.27;;
5616;SDS011;2830;50.656;7.568;2024-03-08T13:52:49;14.77;;;8.30;;
5616;SDS011;2830;50.656;7.568;2024-03-08T13:55:22;11.00;;;7.07;;
5616;SDS011;2830;50.656;7.568;2024-03-08T13:57:50;13.13;;;7.37;;
5616;SDS011;2830;50.656;7.568;2024-03-08T14:00:19;11.53;;;7.73;;
5616;SDS011;2830;50.656;7.568;2024-03-08T14:02:51;10.47;;;7.20;;
5616;SDS011;2830;50.656;7.568;2024-03-08T14:05:20;11.20;;;8.10;;
5616;SDS011;2830;50.656;7.568;2024-03-08T14:07:47;12.17;;;6.63;;
5616;SDS011;2830;50.656;7.568;2024-03-08T14:10:16;15.53;;;8.50;;
5616;SDS011;2830;50.656;7.568;2024-03-08T14:12:47;11.40;;;7.83;;
5616;SDS011;2830;50.656;7.568;2024-03-08T14:15:15;13.87;;;8.73;;
5616;SDS011;2830;50.656;7.568;2024-03-08T14:17:43;11.00;;;7.00;;
5616;SDS011;2830;50.656;7.568;2024-03-08T14:20:13;18.23;;;8.83;;
5616;SDS011;2830;50.656;7.568;2024-03-08T14:22:40;12.40;;;7.10;;
5616;SDS011;2830;50.656;7.568;2024-03-08T14:25:07;13.60;;;7.50;;
5616;SDS011;2830;50.656;7.568;2024-03-08T14:27:44;13.03;;;8.30;;
5616;SDS011;2830;50.656;7.568;2024-03-08T14:30:12;13.70;;;7.70;;
5616;SDS011;2830;50.656;7.568;2024-03-08T14:32:40;12.37;;;7.77;;
5616;SDS011;2830;50.656;7.568;2024-03-08T14:35:08;10.87;;;7.77;;
5616;SDS011;2830;50.656;7.568;2024-03-08T14:37:37;13.10;;;8.80;;
5616;SDS011;2830;50.656;7.568;2024-03-08T14:40:05;13.53;;;7.60;;
5616;SDS011;2830;50.656;7.568;2024-03-08T14:42:32;13.70;;;8.23;;
5616;SDS011;2830;50.656;7.568;2024-03-08T14:44:59;16.10;;;7.73;;
5616;SDS011;2830;50.656;7.568;2024-03-08T14:47:26;12.53;;;8.53;;
5616;SDS011;2830;50.656;7.568;2024-03-08T14:49:54;12.20;;;8.70;;
5616;SDS011;2830;50.656;7.568;2024-03-08T14:52:22;15.40;;;8.30;;
5616;SDS011;2830;50.656;7.568;2024-03-08T14:54:55;13.77;;;9.13;;
5616;SDS011;2830;50.656;7.568;2024-03-08T14:57:23;11.70;;;8.60;;
5616;SDS011;2830;50.656;7.568;2024-03-08T14:59:50;14.53;;;9.00;;
5616;SDS011;2830;50.656;7.568;2024-03-08T15:02:17;15.00;;;8.97;;
5616;SDS011;2830;50.656;7.568;2024-03-08T15:04:46;14.00;;;8.47;;
5616;SDS011;2830;50.656;7.568;2024-03-08T15:07:24;13.87;;;7.80;;
5616;SDS011;2830;50.656;7.568;2024-03-08T15:09:56;14.57;;;9.30;;
5616;SDS011;2830;50.656;7.568;2024-03-08T15:12:23;12.23;;;8.33;;